^^
Saratoga-Weather Station Historical Data
Daily Summary for January 23, 2020 Units:  Metric    English   Both
Daily Weekly Monthly Yearly Custom
  High: Low: Average:
Temperature: 23.8 °C 14.6 °C 19.1 °C
Dew Point: 15.1 °C 6.6 °C 12 °C
Humidity: 85% 43% 65%
Wind Speed: 16.3km/h 0km/h 3.5km/h
Wind Gust: 24.1km/h - -
Wind- - SW
Pressure: 1007.5 hPa 1002.0 hPa -
Precipitation: 1.5 mm    
Historical Graphs
 
 
Tabular Data for January 23, 2020
Time Temperature Dew Point Pressure Wind Wind Speed Wind Gust Humidity Rainfall Rate (Hourly) solar
00:04 20.1 °C 7.1 °C 1006.8 hPa SW 1.4 km/h 4.8 km/h 43% 0.0 mm 0 W/m2
00:09 20 °C 7.4 °C 1006.8 hPa WNW 3.2 km/h 6.4 km/h 44% 0.0 mm 0 W/m2
00:15 19.9 °C 7.3 °C 1006.8 hPa Calm   3.2 km/h 44% 0.0 mm 0 W/m2
00:20 19.9 °C 7.3 °C 1006.8 hPa West 1.4 km/h 6.4 km/h 44% 0.0 mm 0 W/m2
00:25 19.9 °C 7.3 °C 1006.8 hPa Calm   4.8 km/h 44% 0.0 mm 0 W/m2
00:30 19.8 °C 7.2 °C 1006.8 hPa West 3.2 km/h 4.8 km/h 44% 0.0 mm 0 W/m2
00:35 19.7 °C 7.1 °C 1006.8 hPa Calm   9.7 km/h 44% 0.0 mm 0 W/m2
00:40 19.6 °C 7.3 °C 1006.8 hPa West 1.4 km/h 4.8 km/h 45% 0.0 mm 0 W/m2
00:45 19.4 °C 7.5 °C 1006.8 hPa West 3.2 km/h 4.8 km/h 46% 0.0 mm 0 W/m2
00:50 19.4 °C 7.5 °C 1006.8 hPa Calm   4.8 km/h 46% 0.0 mm 0 W/m2
00:55 19.3 °C 7.1 °C 1006.8 hPa West 6.4 km/h 6.4 km/h 45% 0.0 mm 0 W/m2
01:00 19.3 °C 7.1 °C 1006.8 hPa NNW 1.4 km/h 4.8 km/h 45% 0.0 mm 0 W/m2
01:05 19.3 °C 7.1 °C 1006.8 hPa WNW 4.7 km/h 4.8 km/h 45% 0.0 mm 0 W/m2
01:10 19.3 °C 7.4 °C 1006.8 hPa WNW 4.7 km/h 8 km/h 46% 0.0 mm 0 W/m2
01:15 19.2 °C 7.3 °C 1006.8 hPa West 6.4 km/h 11.3 km/h 46% 0.0 mm 0 W/m2
01:20 19.2 °C 7.3 °C 1006.8 hPa WSW 4.7 km/h 8 km/h 46% 0.0 mm 0 W/m2
01:25 19.1 °C 7.2 °C 1006.8 hPa West 3.2 km/h 9.7 km/h 46% 0.0 mm 0 W/m2
01:30 19 °C 7.4 °C 1006.8 hPa NW 1.4 km/h 8 km/h 47% 0.0 mm 0 W/m2
01:35 18.9 °C 7.3 °C 1006.8 hPa WNW 4.7 km/h 11.3 km/h 47% 0.0 mm 0 W/m2
01:40 18.8 °C 7.2 °C 1006.8 hPa NW 4.7 km/h 9.7 km/h 47% 0.0 mm 0 W/m2
01:45 18.7 °C 7.2 °C 1006.8 hPa NW 3.2 km/h 4.8 km/h 47% 0.0 mm 0 W/m2
01:50 18.6 °C 7.4 °C 1006.8 hPa Calm     48% 0.0 mm 0 W/m2
01:55 18.4 °C 7.5 °C 1006.8 hPa SW 3.2 km/h 3.2 km/h 49% 0.0 mm 0 W/m2
02:00 18.2 °C 7.6 °C 1006.8 hPa Calm   3.2 km/h 50% 0.0 mm 0 W/m2
02:05 17.9 °C 7 °C 1006.8 hPa West 3.2 km/h 4.8 km/h 49% 0.0 mm 0 W/m2
02:10 17.8 °C 7.5 °C 1006.8 hPa Calm   1.6 km/h 51% 0.0 mm 0 W/m2
02:15 17.7 °C 7.4 °C 1006.8 hPa Calm   4.8 km/h 51% 0.0 mm 0 W/m2
02:20 17.5 °C 7.5 °C 1006.8 hPa NNW 1.4 km/h 1.6 km/h 52% 0.0 mm 0 W/m2
02:25 17.2 °C 7.5 °C 1006.8 hPa Calm   3.2 km/h 53% 0.0 mm 0 W/m2
02:30 17.1 °C 7.4 °C 1006.8 hPa Calm   1.6 km/h 53% 0.0 mm 0 W/m2
02:35 16.9 °C 7.5 °C 1006.8 hPa NNW 1.4 km/h 3.2 km/h 54% 0.0 mm 0 W/m2
02:40 16.7 °C 7.3 °C 1006.8 hPa WSW 1.4 km/h 1.6 km/h 54% 0.0 mm 0 W/m2
02:45 16.8 °C 6.9 °C 1006.8 hPa WSW 1.4 km/h 6.4 km/h 52% 0.0 mm 0 W/m2
02:50 17 °C 7.1 °C 1006.8 hPa NW 3.2 km/h 4.8 km/h 52% 0.0 mm 0 W/m2
02:55 17.2 °C 7 °C 1006.8 hPa Calm   4.8 km/h 51% 0.0 mm 0 W/m2
03:00 17.2 °C 6.7 °C 1006.8 hPa ENE 3.2 km/h 6.4 km/h 50% 0.0 mm 0 W/m2
03:05 17.2 °C 6.7 °C 1006.8 hPa WSW 7.9 km/h 11.3 km/h 50% 0.0 mm 0 W/m2
03:10 17.3 °C 6.8 °C 1006.8 hPa WNW 3.2 km/h 12.9 km/h 50% 0.0 mm 0 W/m2
03:15 17.2 °C 6.7 °C 1006.8 hPa WNW 3.2 km/h 11.3 km/h 50% 0.0 mm 0 W/m2
03:20 17.2 °C 6.7 °C 1006.8 hPa WSW 4.7 km/h 11.3 km/h 50% 0.0 mm 0 W/m2
03:25 17.2 °C 6.7 °C 1006.8 hPa West 4.7 km/h 9.7 km/h 50% 0.0 mm 0 W/m2
03:30 17.1 °C 6.6 °C 1006.8 hPa West 3.2 km/h 11.3 km/h 50% 0.0 mm 0 W/m2
03:35 17.1 °C 6.9 °C 1006.8 hPa WSW 4.7 km/h 6.4 km/h 51% 0.0 mm 0 W/m2
03:40 16.9 °C 6.7 °C 1006.8 hPa WNW 4.7 km/h 6.4 km/h 51% 0.0 mm 0 W/m2
03:45 16.8 °C 6.6 °C 1006.8 hPa WNW 1.4 km/h 9.7 km/h 51% 0.0 mm 0 W/m2
03:50 16.7 °C 6.8 °C 1006.8 hPa SSW 3.2 km/h 9.7 km/h 52% 0.0 mm 0 W/m2
03:55 16.6 °C 6.7 °C 1006.8 hPa West 3.2 km/h 9.7 km/h 52% 0.0 mm 0 W/m2
04:00 16.5 °C 6.9 °C 1006.8 hPa West 11.1 km/h 12.9 km/h 53% 0.0 mm 0 W/m2
04:05 16.4 °C 6.8 °C 1006.8 hPa SE 4.7 km/h 6.4 km/h 53% 0.0 mm 0 W/m2
04:10 16.4 °C 6.8 °C 1006.4 hPa WNW 6.4 km/h 11.3 km/h 53% 0.0 mm 0 W/m2
04:15 16.3 °C 6.7 °C 1006.4 hPa WSW 6.4 km/h 17.7 km/h 53% 0.0 mm 0 W/m2
04:20 16.2 °C 6.9 °C 1006.4 hPa WNW 1.4 km/h 4.8 km/h 54% 0.0 mm 0 W/m2
04:25 16.1 °C 7.1 °C 1006.4 hPa WNW 3.2 km/h 6.4 km/h 55% 0.0 mm 0 W/m2
04:30 16 °C 7 °C 1006.4 hPa WNW 1.4 km/h 6.4 km/h 55% 0.0 mm 0 W/m2
04:35 15.9 °C 7.4 °C 1006.4 hPa West 1.4 km/h 9.7 km/h 57% 0.0 mm 0 W/m2
04:40 15.8 °C 7.6 °C 1006.4 hPa West 3.2 km/h 11.3 km/h 58% 0.0 mm 0 W/m2
04:45 15.7 °C 7.7 °C 1006.4 hPa WSW 7.9 km/h 9.7 km/h 59% 0.0 mm 0 W/m2
04:50 15.7 °C 8.2 °C 1006.4 hPa NW 4.7 km/h 16.1 km/h 61% 0.0 mm 0 W/m2
04:55 15.6 °C 8.3 °C 1006.4 hPa NW 4.7 km/h 11.3 km/h 62% 0.0 mm 0 W/m2
05:00 15.6 °C 8.8 °C 1006.4 hPa West 1.4 km/h 14.5 km/h 64% 0.0 mm 0 W/m2
05:05 15.5 °C 9.2 °C 1006.4 hPa WNW 4.7 km/h 8 km/h 66% 0.0 mm 0 W/m2
05:10 15.5 °C 9.4 °C 1006.4 hPa West 6.4 km/h 11.3 km/h 67% 0.0 mm 0 W/m2
05:15 15.4 °C 9.5 °C 1006.4 hPa WSW 4.7 km/h 9.7 km/h 68% 0.0 mm 0 W/m2
05:20 15.3 °C 9.6 °C 1006.4 hPa WNW 1.4 km/h 8 km/h 69% 0.0 mm 0 W/m2
05:25 15.3 °C 9.6 °C 1006.4 hPa SW 6.4 km/h 6.4 km/h 69% 0.0 mm 0 W/m2
05:30 15.2 °C 10 °C 1006.4 hPa WNW 3.2 km/h 11.3 km/h 71% 0.0 mm 0 W/m2
05:35 15.2 °C 10.2 °C 1006.4 hPa North 4.7 km/h 4.8 km/h 72% 0.0 mm 0 W/m2
05:40 15.2 °C 10.4 °C 1006.4 hPa SW 3.2 km/h 9.7 km/h 73% 0.0 mm 0 W/m2
05:45 15.2 °C 10.6 °C 1006.4 hPa West 3.2 km/h 6.4 km/h 74% 0.0 mm 0 W/m2
05:50 15.2 °C 11 °C 1006.4 hPa SW 4.7 km/h 6.4 km/h 76% 0.0 mm 0 W/m2
05:55 15.2 °C 11 °C 1006.4 hPa WNW 6.4 km/h 6.4 km/h 76% 0.0 mm 0 W/m2
06:00 15.2 °C 11.2 °C 1006.4 hPa SSW 3.2 km/h 9.7 km/h 77% 0.0 mm 0 W/m2
06:05 15.3 °C 11.3 °C 1006.4 hPa NNW 3.2 km/h 4.8 km/h 77% 0.0 mm 0 W/m2
06:10 15.3 °C 11.1 °C 1006.4 hPa North 1.4 km/h 4.8 km/h 76% 0.0 mm 0 W/m2
06:15 15.2 °C 10.6 °C 1006.8 hPa Calm   1.6 km/h 74% 0.0 mm 0 W/m2
06:20 15.1 °C 10.5 °C 1006.4 hPa Calm   1.6 km/h 74% 0.0 mm 0 W/m2
06:25 14.9 °C 10.5 °C 1006.4 hPa NE 4.7 km/h 4.8 km/h 75% 0.0 mm 0 W/m2
06:30 14.8 °C 10.8 °C 1006.4 hPa Calm   4.8 km/h 77% 0.0 mm 0 W/m2
06:35 14.7 °C 10.9 °C 1006.4 hPa Calm   1.6 km/h 78% 0.0 mm 0 W/m2
06:40 14.7 °C 11.1 °C 1006.4 hPa East 1.4 km/h 4.8 km/h 79% 0.0 mm 0 W/m2
06:45 14.7 °C 11.3 °C 1006.4 hPa Calm   1.6 km/h 80% 0.0 mm 0 W/m2
06:50 14.7 °C 11.3 °C 1006.4 hPa East 1.4 km/h 4.8 km/h 80% 0.0 mm 0 W/m2
06:55 14.7 °C 11.5 °C 1006.8 hPa Calm   1.6 km/h 81% 0.0 mm 0 W/m2
07:00 14.6 °C 11.4 °C 1006.8 hPa Calm     81% 0.0 mm 0 W/m2
07:05 14.7 °C 11.7 °C 1006.8 hPa ENE 1.4 km/h 6.4 km/h 82% 0.0 mm 0 W/m2
07:10 14.7 °C 11.7 °C 1006.8 hPa ENE 3.2 km/h 3.2 km/h 82% 0.0 mm 0 W/m2
07:15 14.8 °C 11.9 °C 1006.8 hPa NE 1.4 km/h 6.4 km/h 83% 0.0 mm 0 W/m2
07:20 14.8 °C 11.9 °C 1006.8 hPa ENE 4.7 km/h 4.8 km/h 83% 0.0 mm 0 W/m2
07:25 14.8 °C 11.9 °C 1006.8 hPa SE 1.4 km/h 4.8 km/h 83% 0.0 mm 0 W/m2
07:30 14.9 °C 12.2 °C 1006.8 hPa NNW 1.4 km/h 4.8 km/h 84% 0.0 mm 5 W/m2
07:35 15.1 °C 12.6 °C 1006.8 hPa WNW 4.7 km/h 6.4 km/h 85% 0.0 mm 7 W/m2
07:40 15.2 °C 12.7 °C 1006.8 hPa West 1.4 km/h 11.3 km/h 85% 0.0 mm 11 W/m2
07:45 15.3 °C 12.8 °C 1006.8 hPa West 1.4 km/h 11.3 km/h 85% 0.0 mm 14 W/m2
07:50 15.4 °C 12.9 °C 1006.8 hPa NW 7.9 km/h 11.3 km/h 85% 0.0 mm 18 W/m2
07:55 15.5 °C 13 °C 1006.8 hPa NNW 3.2 km/h 8 km/h 85% 0.0 mm 19 W/m2
08:00 15.6 °C 13.1 °C 1006.8 hPa NW 4.7 km/h 11.3 km/h 85% 0.0 mm 21 W/m2
08:05 15.6 °C 13.1 °C 1006.8 hPa NW 3.2 km/h 3.2 km/h 85% 0.0 mm 26 W/m2
08:10 15.6 °C 13.1 °C 1007.1 hPa Calm   4.8 km/h 85% 0.0 mm 30 W/m2
08:15 15.6 °C 13.1 °C 1007.1 hPa Calm   6.4 km/h 85% 0.0 mm 37 W/m2
08:20 15.6 °C 13.1 °C 1007.1 hPa East 3.2 km/h 4.8 km/h 85% 0.0 mm 37 W/m2
08:26 15.6 °C 13.1 °C 1007.1 hPa ENE 1.4 km/h 4.8 km/h 85% 0.0 mm 46 W/m2
08:31 15.6 °C 13.1 °C 1006.8 hPa NW 3.2 km/h 4.8 km/h 85% 0.0 mm 67 W/m2
08:36 15.7 °C 13.2 °C 1007.1 hPa West 1.4 km/h 3.2 km/h 85% 0.0 mm 81 W/m2
08:41 15.8 °C 13.3 °C 1007.1 hPa Calm   1.6 km/h 85% 0.0 mm 77 W/m2
08:46 15.9 °C 13.4 °C 1007.1 hPa NE 4.7 km/h 6.4 km/h 85% 0.0 mm 67 W/m2
08:51 16.1 °C 13.4 °C 1007.1 hPa West 1.4 km/h 4.8 km/h 84% 0.0 mm 67 W/m2
08:56 16.1 °C 13.4 °C 1007.1 hPa ESE 1.4 km/h 6.4 km/h 84% 0.0 mm 81 W/m2
09:01 16.2 °C 13.5 °C 1007.1 hPa Calm   6.4 km/h 84% 0.0 mm 79 W/m2
09:06 16.3 °C 13.6 °C 1007.5 hPa Calm     84% 0.0 mm 77 W/m2
09:11 16.4 °C 13.5 °C 1007.1 hPa Calm   3.2 km/h 83% 0.0 mm 84 W/m2
09:16 16.4 °C 13.5 °C 1007.1 hPa Calm   1.6 km/h 83% 0.0 mm 98 W/m2
09:21 16.6 °C 13.7 °C 1007.1 hPa NW 3.2 km/h 8 km/h 83% 0.0 mm 211 W/m2
09:26 16.7 °C 13.6 °C 1007.5 hPa NW 3.2 km/h 8 km/h 82% 0.0 mm 72 W/m2
09:31 16.7 °C 13.6 °C 1007.5 hPa WNW 4.7 km/h 6.4 km/h 82% 0.0 mm 79 W/m2
09:36 16.6 °C 13.5 °C 1007.5 hPa West 4.7 km/h 11.3 km/h 82% 0.0 mm 90 W/m2
09:41 16.7 °C 13.6 °C 1007.5 hPa Calm   4.8 km/h 82% 0.0 mm 197 W/m2
09:46 16.9 °C 13.8 °C 1007.1 hPa NW 1.4 km/h 8 km/h 82% 0.0 mm 265 W/m2
09:51 17 °C 13.7 °C 1007.5 hPa NW 1.4 km/h 6.4 km/h 81% 0.0 mm 279 W/m2
09:56 17.2 °C 13.9 °C 1007.5 hPa Calm   4.8 km/h 81% 0.0 mm 290 W/m2
10:01 17.4 °C 13.9 °C 1007.1 hPa West 4.7 km/h 14.5 km/h 80% 0.0 mm 97 W/m2
10:06 17.4 °C 13.7 °C 1007.1 hPa WNW 4.7 km/h 8 km/h 79% 0.0 mm 107 W/m2
10:11 17.4 °C 13.7 °C 1007.1 hPa West 1.4 km/h 14.5 km/h 79% 0.0 mm 132 W/m2
10:16 17.4 °C 13.7 °C 1007.5 hPa Calm   4.8 km/h 79% 0.0 mm 102 W/m2
10:21 17.4 °C 13.7 °C 1007.1 hPa West 1.4 km/h 8 km/h 79% 0.0 mm 102 W/m2
10:26 17.5 °C 13.8 °C 1007.5 hPa Calm   1.6 km/h 79% 0.0 mm 183 W/m2
10:31 17.7 °C 14 °C 1007.1 hPa North 1.4 km/h 8 km/h 79% 0.0 mm 415 W/m2
10:36 18.1 °C 14.2 °C 1007.1 hPa WNW 6.4 km/h 11.3 km/h 78% 0.0 mm 399 W/m2
10:41 18.5 °C 14 °C 1007.1 hPa West 13 km/h 12.9 km/h 75% 0.0 mm 397 W/m2
10:46 18.7 °C 14 °C 1007.5 hPa WNW 4.7 km/h 12.9 km/h 74% 0.0 mm 394 W/m2
10:51 18.8 °C 13.9 °C 1007.1 hPa West 4.7 km/h 4.8 km/h 73% 0.0 mm 401 W/m2
10:56 18.9 °C 14.2 °C 1007.1 hPa Calm   6.4 km/h 74% 0.0 mm 148 W/m2
11:01 19.1 °C 14.1 °C 1007.1 hPa North 1.4 km/h 6.4 km/h 73% 0.0 mm 213 W/m2
11:06 19.2 °C 14 °C 1007.1 hPa SW 7.9 km/h 9.7 km/h 72% 0.0 mm 471 W/m2
11:11 19.3 °C 13.9 °C 1007.1 hPa SSE 4.7 km/h 14.5 km/h 71% 0.0 mm 469 W/m2
11:16 19.3 °C 13.9 °C 1007.1 hPa West 11.1 km/h 11.3 km/h 71% 0.0 mm 309 W/m2
11:21 19.3 °C 14.1 °C 1007.1 hPa West 4.7 km/h 14.5 km/h 72% 0.0 mm 531 W/m2
11:26 19.6 °C 14.2 °C 1007.1 hPa WNW 3.2 km/h 4.8 km/h 71% 0.0 mm 510 W/m2
11:31 19.8 °C 14.2 °C 1007.1 hPa West 4.7 km/h 9.7 km/h 70% 0.0 mm 538 W/m2
11:36 19.9 °C 14.3 °C 1007.1 hPa WNW 6.4 km/h 12.9 km/h 70% 0.0 mm 301 W/m2
11:41 20.1 °C 14.5 °C 1007.1 hPa West 16.3 km/h 16.1 km/h 70% 0.0 mm 374 W/m2
11:46 20 °C 14.6 °C 1007.1 hPa WNW 7.9 km/h 9.7 km/h 71% 0.0 mm 350 W/m2
11:51 20.1 °C 14.7 °C 1007.1 hPa West 16.1 km/h 16.1 km/h 71% 0.0 mm 550 W/m2
11:56 20.3 °C 14.6 °C 1006.8 hPa West 9.7 km/h 14.5 km/h 70% 0.0 mm 606 W/m2
12:01 20.3 °C 14.6 °C 1006.8 hPa West 9.7 km/h 12.9 km/h 70% 0.0 mm 622 W/m2
12:06 20.4 °C 14.5 °C 1006.8 hPa WNW 16.3 km/h 16.1 km/h 69% 0.0 mm 343 W/m2
12:11 20.5 °C 14.4 °C 1006.8 hPa WNW 4.7 km/h 9.7 km/h 68% 0.0 mm 285 W/m2
12:16 20.5 °C 14.4 °C 1006.8 hPa SW 3.2 km/h 24.1 km/h 68% 0.0 mm 311 W/m2
12:21 20.5 °C 14.4 °C 1006.8 hPa NW 6.4 km/h 11.3 km/h 68% 0.0 mm 248 W/m2
12:26 20.4 °C 14.3 °C 1006.8 hPa NW 3.2 km/h 24.1 km/h 68% 0.0 mm 162 W/m2
12:31 20.5 °C 14.4 °C 1006.8 hPa NW 3.2 km/h 6.4 km/h 68% 0.0 mm 211 W/m2
12:36 20.5 °C 14.6 °C 1006.8 hPa NNW 1.4 km/h 3.2 km/h 69% 0.0 mm 204 W/m2
12:41 20.7 °C 14.6 °C 1006.8 hPa West 9.7 km/h 12.9 km/h 68% 0.0 mm 163 W/m2
12:46 20.6 °C 14.7 °C 1006.8 hPa West 1.4 km/h 11.3 km/h 69% 0.0 mm 195 W/m2
12:51 20.6 °C 14.7 °C 1006.8 hPa North 4.7 km/h 12.9 km/h 69% 0.0 mm 213 W/m2
12:56 20.7 °C 14.8 °C 1006.8 hPa NNW 3.2 km/h 6.4 km/h 69% 0.0 mm 292 W/m2
13:01 21 °C 14.9 °C 1006.4 hPa NE 3.2 km/h 12.9 km/h 68% 0.0 mm 766 W/m2
13:06 21.4 °C 15 °C 1006.4 hPa Calm   8 km/h 67% 0.0 mm 795 W/m2
13:11 21.7 °C 15.1 °C 1006.4 hPa NNW 1.4 km/h 8 km/h 66% 0.0 mm 761 W/m2
13:16 21.8 °C 14.7 °C 1006.4 hPa SSE 1.4 km/h 4.8 km/h 64% 0.0 mm 687 W/m2
13:21 22.1 °C 14.7 °C 1006.1 hPa NW 1.4 km/h 3.2 km/h 63% 0.0 mm 684 W/m2
13:26 22.6 °C 14.9 °C 1006.1 hPa North 6.4 km/h 12.9 km/h 62% 0.0 mm 272 W/m2
13:31 22.4 °C 14.3 °C 1006.1 hPa West 13 km/h 16.1 km/h 60% 0.0 mm 272 W/m2
13:36 22.2 °C 14.1 °C 1006.1 hPa WSW 3.2 km/h 6.4 km/h 60% 0.0 mm 285 W/m2
13:41 22.1 °C 14.2 °C 1006.1 hPa ESE 3.2 km/h 16.1 km/h 61% 0.0 mm 721 W/m2
13:46 22.4 °C 14.5 °C 1005.8 hPa ENE 4.7 km/h 11.3 km/h 61% 0.0 mm 659 W/m2
13:51 22.5 °C 14.3 °C 1005.8 hPa WNW 11.1 km/h 14.5 km/h 60% 0.0 mm 142 W/m2
13:56 22.1 °C 14.2 °C 1005.8 hPa WNW 1.4 km/h 6.4 km/h 61% 0.0 mm 174 W/m2
14:01 22 °C 14.4 °C 1005.8 hPa NE 6.4 km/h 14.5 km/h 62% 0.0 mm 171 W/m2
14:06 22.2 °C 14.6 °C 1005.8 hPa NE 4.7 km/h 4.8 km/h 62% 0.0 mm 731 W/m2
14:11 22.6 °C 14.7 °C 1005.8 hPa NW 4.7 km/h 12.9 km/h 61% 0.0 mm 700 W/m2
14:16 22.8 °C 14.4 °C 1005.8 hPa NW 4.7 km/h 6.4 km/h 59% 0.0 mm 111 W/m2
14:21 22.8 °C 14.4 °C 1005.8 hPa NW 6.4 km/h 8 km/h 59% 0.0 mm 113 W/m2
14:26 22.6 °C 14.2 °C 1005.8 hPa SW 1.4 km/h 4.8 km/h 59% 0.0 mm 169 W/m2
14:31 22.5 °C 14.1 °C 1005.8 hPa East 1.4 km/h 6.4 km/h 59% 0.0 mm 142 W/m2
14:36 22.3 °C 13.9 °C 1005.4 hPa Calm   3.2 km/h 59% 0.0 mm 146 W/m2
14:41 22.4 °C 14 °C 1005.4 hPa NW 3.2 km/h 12.9 km/h 59% 0.0 mm 153 W/m2
14:47 22.4 °C 14 °C 1005.4 hPa West 6.4 km/h 12.9 km/h 59% 0.0 mm 193 W/m2
14:52 22.7 °C 13.5 °C 1005.1 hPa SSE 6.4 km/h 9.7 km/h 56% 0.0 mm 687 W/m2
14:57 23.3 °C 13.5 °C 1005.4 hPa South 1.4 km/h 16.1 km/h 54% 0.0 mm 719 W/m2
15:02 23.4 °C 13.6 °C 1005.4 hPa WNW 13 km/h 12.9 km/h 54% 0.0 mm 295 W/m2
15:07 23.2 °C 13.4 °C 1005.4 hPa West 4.7 km/h 19.3 km/h 54% 0.0 mm 174 W/m2
15:12 23.3 °C 13.8 °C 1005.4 hPa West 11.1 km/h 22.5 km/h 55% 0.0 mm 700 W/m2
15:17 23.3 °C 13.8 °C 1005.1 hPa West 6.4 km/h 9.7 km/h 55% 0.0 mm 192 W/m2
15:22 23.4 °C 13.6 °C 1005.1 hPa NW 3.2 km/h 22.5 km/h 54% 0.0 mm 209 W/m2
15:27 23.4 °C 13.3 °C 1005.1 hPa NW 3.2 km/h 9.7 km/h 53% 0.0 mm 123 W/m2
15:32 23.2 °C 13.4 °C 1005.1 hPa NW 3.2 km/h 11.3 km/h 54% 0.0 mm 169 W/m2
15:37 23.2 °C 13.7 °C 1005.1 hPa NW 7.9 km/h 8 km/h 55% 0.0 mm 258 W/m2
15:42 23.2 °C 13.7 °C 1005.1 hPa WNW 11.1 km/h 16.1 km/h 55% 0.0 mm 107 W/m2
15:47 22.9 °C 13.4 °C 1005.1 hPa West 3.2 km/h 12.9 km/h 55% 0.0 mm 109 W/m2
15:52 22.8 °C 13.6 °C 1005.1 hPa NW 7.9 km/h 16.1 km/h 56% 0.0 mm 183 W/m2
15:57 22.7 °C 13.5 °C 1004.7 hPa West 4.7 km/h 9.7 km/h 56% 0.0 mm 612 W/m2
16:02 23.1 °C 13.8 °C 1004.7 hPa NW 3.2 km/h 12.9 km/h 56% 0.0 mm 615 W/m2
16:07 23.3 °C 13.8 °C 1004.7 hPa WNW 4.7 km/h 12.9 km/h 55% 0.0 mm 550 W/m2
16:12 23.6 °C 13.7 °C 1004.7 hPa West 1.4 km/h 9.7 km/h 54% 0.0 mm 529 W/m2
16:17 23.7 °C 13.6 °C 1004.7 hPa NNW 9.7 km/h 16.1 km/h 53% 0.0 mm 478 W/m2
16:22 23.6 °C 13.7 °C 1004.7 hPa WSW 7.9 km/h 11.3 km/h 54% 0.0 mm 468 W/m2
16:27 23.7 °C 13.6 °C 1004.4 hPa NW 7.9 km/h 11.3 km/h 53% 0.0 mm 441 W/m2
16:32 23.7 °C 13.6 °C 1004.4 hPa NNW 4.7 km/h 9.7 km/h 53% 0.0 mm 392 W/m2
16:37 23.7 °C 13.6 °C 1004.4 hPa WNW 6.4 km/h 9.7 km/h 53% 0.0 mm 385 W/m2
16:42 23.8 °C 13.6 °C 1004.4 hPa South 3.2 km/h 6.4 km/h 53% 0.0 mm 427 W/m2
16:47 23.8 °C 13.6 °C 1004.4 hPa NE 4.7 km/h 8 km/h 53% 0.0 mm 350 W/m2
16:52 23.7 °C 13.6 °C 1004.4 hPa SE 3.2 km/h 11.3 km/h 53% 0.0 mm 148 W/m2
16:57 23.4 °C 13.3 °C 1004.4 hPa NE 6.4 km/h 6.4 km/h 53% 0.0 mm 98 W/m2
17:02 23.2 °C 13.4 °C 1004.1 hPa NNE 4.7 km/h 6.4 km/h 54% 0.0 mm 160 W/m2
17:07 23.2 °C 13.4 °C 1004.1 hPa Calm   4.8 km/h 54% 0.0 mm 141 W/m2
17:12 23.4 °C 13 °C 1004.1 hPa North 3.2 km/h 4.8 km/h 52% 0.0 mm 297 W/m2
17:17 23.7 °C 13.3 °C 1004.1 hPa NNE 3.2 km/h 4.8 km/h 52% 0.0 mm 153 W/m2
17:22 23.8 °C 12.8 °C 1004.1 hPa NNW 6.4 km/h 9.7 km/h 50% 0.0 mm 220 W/m2
17:27 23.7 °C 12.7 °C 1004.1 hPa WNW 7.9 km/h 9.7 km/h 50% 0.0 mm 137 W/m2
17:32 23.4 °C 12.7 °C 1004.1 hPa NW 3.2 km/h 4.8 km/h 51% 0.0 mm 88 W/m2
17:37 23.3 °C 12.3 °C 1004.1 hPa NE 4.7 km/h 9.7 km/h 50% 0.0 mm 113 W/m2
17:42 23.1 °C 12.4 °C 1004.1 hPa NE 3.2 km/h 8 km/h 51% 0.0 mm 135 W/m2
17:47 23.1 °C 12.4 °C 1004.1 hPa NW 1.4 km/h 9.7 km/h 51% 0.0 mm 125 W/m2
17:52 23 °C 12.6 °C 1004.1 hPa Calm   4.8 km/h 52% 0.0 mm 146 W/m2
17:57 23 °C 12.6 °C 1003.7 hPa West 3.2 km/h 6.4 km/h 52% 0.0 mm 130 W/m2
18:02 23 °C 12.6 °C 1003.7 hPa NW 4.7 km/h 11.3 km/h 52% 0.0 mm 111 W/m2
18:07 22.9 °C 12.5 °C 1003.7 hPa WNW 4.7 km/h 8 km/h 52% 0.0 mm 98 W/m2
18:12 22.8 °C 12.7 °C 1003.7 hPa NNW 1.4 km/h 11.3 km/h 53% 0.0 mm 79 W/m2
18:17 22.8 °C 12.4 °C 1003.7 hPa NW 6.4 km/h 6.4 km/h 52% 0.0 mm 70 W/m2
18:22 22.7 °C 12.6 °C 1003.7 hPa WNW 4.7 km/h 4.8 km/h 53% 0.0 mm 58 W/m2
18:27 22.6 °C 12.5 °C 1003.7 hPa NW 3.2 km/h 6.4 km/h 53% 0.0 mm 54 W/m2
18:32 22.5 °C 12.4 °C 1003.7 hPa Calm   3.2 km/h 53% 0.0 mm 47 W/m2
18:37 22.3 °C 12.5 °C 1003.7 hPa NNW 6.4 km/h 6.4 km/h 54% 0.0 mm 42 W/m2
18:42 22.3 °C 12.3 °C 1003.7 hPa NW 1.4 km/h 4.8 km/h 53% 0.0 mm 40 W/m2
18:47 22.2 °C 12.2 °C 1003.4 hPa WNW 1.4 km/h 4.8 km/h 53% 0.0 mm 39 W/m2
18:52 22.1 °C 12.1 °C 1003.4 hPa Calm   3.2 km/h 53% 0.0 mm 33 W/m2
18:57 22.1 °C 12.1 °C 1003.4 hPa NNW 1.4 km/h 3.2 km/h 53% 0.0 mm 26 W/m2
19:02 21.9 °C 11.9 °C 1003.4 hPa Calm   1.6 km/h 53% 0.0 mm 23 W/m2
19:07 21.8 °C 12.4 °C 1003.4 hPa Calm     55% 0.0 mm 19 W/m2
19:12 21.6 °C 12.2 °C 1003.4 hPa WNW 1.4 km/h 3.2 km/h 55% 0.0 mm 16 W/m2
19:17 21.4 °C 12.3 °C 1003.4 hPa SW 1.4 km/h 3.2 km/h 56% 0.0 mm 11 W/m2
19:22 21.2 °C 12.6 °C 1003.4 hPa Calm     58% 0.0 mm 9 W/m2
19:27 21 °C 12.4 °C 1003.4 hPa SW 1.4 km/h 3.2 km/h 58% 0.0 mm 5 W/m2
19:32 20.7 °C 12.4 °C 1003.4 hPa Calm   1.6 km/h 59% 0.0 mm 0 W/m2
19:37 20.4 °C 12.4 °C 1003.4 hPa Calm   1.6 km/h 60% 0.0 mm 0 W/m2
19:42 20.2 °C 12.7 °C 1003.4 hPa SE 1.4 km/h 3.2 km/h 62% 0.0 mm 0 W/m2
19:47 20.2 °C 13.2 °C 1003.4 hPa Calm   1.6 km/h 64% 0.0 mm 0 W/m2
19:52 20.1 °C 13.3 °C 1003.4 hPa NE 1.4 km/h 3.2 km/h 65% 0.0 mm 0 W/m2
19:57 20 °C 13.5 °C 1003.4 hPa NE 1.4 km/h 3.2 km/h 66% 0.0 mm 0 W/m2
20:03 19.9 °C 13.6 °C 1003.0 hPa Calm   3.2 km/h 67% 0.0 mm 0 W/m2
20:08 19.9 °C 13.6 °C 1003.4 hPa Calm   1.6 km/h 67% 0.0 mm 0 W/m2
20:13 19.6 °C 13.3 °C 1003.0 hPa Calm   3.2 km/h 67% 0.0 mm 0 W/m2
20:18 19.4 °C 13.3 °C 1003.0 hPa Calm   1.6 km/h 68% 0.0 mm 0 W/m2
20:23 19.2 °C 13.4 °C 1003.0 hPa Calm   3.2 km/h 69% 0.0 mm 0 W/m2
20:28 19.1 °C 13.5 °C 1003.0 hPa ENE 1.4 km/h 1.6 km/h 70% 0.0 mm 0 W/m2
20:33 18.9 °C 13.5 °C 1003.0 hPa Calm   1.6 km/h 71% 0.0 mm 0 W/m2
20:38 18.8 °C 13.4 °C 1003.0 hPa East 1.4 km/h 1.6 km/h 71% 0.0 mm 0 W/m2
20:43 18.6 °C 13.5 °C 1003.0 hPa Calm     72% 0.0 mm 0 W/m2
20:48 18.4 °C 13.5 °C 1003.0 hPa Calm     73% 0.0 mm 0 W/m2
20:53 18.3 °C 13.6 °C 1003.0 hPa Calm     74% 0.0 mm 0 W/m2
20:58 18.1 °C 13.4 °C 1003.0 hPa ESE 1.4 km/h 3.2 km/h 74% 0.0 mm 0 W/m2
21:03 17.9 °C 13.4 °C 1003.0 hPa Calm   1.6 km/h 75% 0.0 mm 0 W/m2
21:08 17.8 °C 13.5 °C 1003.0 hPa Calm   3.2 km/h 76% 0.0 mm 0 W/m2
21:13 17.7 °C 13.4 °C 1003.0 hPa ESE 1.4 km/h 1.6 km/h 76% 0.0 mm 0 W/m2
21:18 17.7 °C 13.4 °C 1003.0 hPa ENE 1.4 km/h 3.2 km/h 76% 0.0 mm 0 W/m2
21:23 17.9 °C 13.4 °C 1003.0 hPa NE 1.4 km/h 3.2 km/h 75% 0.0 mm 0 W/m2
21:28 18.1 °C 13.6 °C 1003.0 hPa Calm   3.2 km/h 75% 0.0 mm 0 W/m2
21:33 18.3 °C 13.6 °C 1003.0 hPa ENE 4.7 km/h 8 km/h 74% 0.0 mm 0 W/m2
21:38 18.7 °C 13.8 °C 1003.0 hPa NE 4.7 km/h 4.8 km/h 73% 0.0 mm 0 W/m2
21:43 18.8 °C 13.9 °C 1003.0 hPa NNE 1.4 km/h 6.4 km/h 73% 0.0 mm 0 W/m2
21:48 18.9 °C 13.7 °C 1003.0 hPa NE 3.2 km/h 6.4 km/h 72% 0.0 mm 0 W/m2
21:53 19.1 °C 13.9 °C 1003.0 hPa NE 3.2 km/h 6.4 km/h 72% 0.0 mm 0 W/m2
21:58 19.2 °C 13.8 °C 1003.0 hPa NNE 1.4 km/h 3.2 km/h 71% 0.0 mm 0 W/m2
22:03 19.2 °C 13.8 °C 1002.7 hPa East 4.7 km/h 11.3 km/h 71% 0.0 mm 0 W/m2
22:08 19.2 °C 13.8 °C 1003.0 hPa NE 3.2 km/h 4.8 km/h 71% 0.0 mm 0 W/m2
22:13 19.2 °C 13.8 °C 1002.7 hPa ESE 3.2 km/h 9.7 km/h 71% 0.0 mm 0 W/m2
22:18 19.2 °C 13.8 °C 1002.7 hPa NE 4.7 km/h 4.8 km/h 71% 0.0 mm 0 W/m2
22:23 19.2 °C 13.8 °C 1002.7 hPa ENE 6.4 km/h 12.9 km/h 71% 0.0 mm 0 W/m2
22:28 19.1 °C 13.7 °C 1002.7 hPa NNE 4.7 km/h 9.7 km/h 71% 0.0 mm 0 W/m2
22:33 19 °C 13.6 °C 1002.7 hPa East 7.9 km/h 12.9 km/h 71% 0.0 mm 0 W/m2
22:38 18.9 °C 13.7 °C 1002.7 hPa ENE 1.4 km/h 4.8 km/h 72% 0.0 mm 0 W/m2
22:43 18.8 °C 13.9 °C 1002.7 hPa ENE 6.4 km/h 6.4 km/h 73% 0.0 mm 0 W/m2
22:48 18.7 °C 13.8 °C 1002.7 hPa ENE 7.9 km/h 8 km/h 73% 0.0 mm 0 W/m2
22:53 18.6 °C 13.7 °C 1002.7 hPa Calm   8 km/h 73% 0.0 mm 0 W/m2
22:58 18.6 °C 13.7 °C 1002.7 hPa East 9.7 km/h 9.7 km/h 73% 0.0 mm 0 W/m2
23:03 18.7 °C 13.8 °C 1002.4 hPa ENE 4.7 km/h 6.4 km/h 73% 0.0 mm 0 W/m2
23:08 18.7 °C 13.8 °C 1002.4 hPa NE 4.7 km/h 12.9 km/h 73% 0.0 mm 0 W/m2
23:13 18.8 °C 13.6 °C 1002.4 hPa East 3.2 km/h 9.7 km/h 72% 0.0 mm 0 W/m2
23:18 18.9 °C 13.7 °C 1002.0 hPa East 7.9 km/h 12.9 km/h 72% 0.0 mm 0 W/m2
23:23 19 °C 13.8 °C 1002.0 hPa NNE 4.7 km/h 8 km/h 72% 0.0 mm 0 W/m2
23:28 19.1 °C 13.7 °C 1002.0 hPa ENE 6.4 km/h 14.5 km/h 71% 0.0 mm 0 W/m2
23:33 19.2 °C 13.8 °C 1002.0 hPa North 3.2 km/h 4.8 km/h 71% 0.0 mm 0 W/m2
23:38 19.3 °C 14.1 °C 1002.4 hPa East 3.2 km/h 8 km/h 72% 0.0 mm 0 W/m2
23:43 19.3 °C 14.1 °C 1002.4 hPa NW 7.9 km/h 9.7 km/h 72% 0.0 mm 0 W/m2
23:48 19.2 °C 14.7 °C 1002.7 hPa WNW 7.9 km/h 20.9 km/h 75% 1.0 mm 0 W/m2
23:53 18.5 °C 14.4 °C 1002.4 hPa NNW 1.4 km/h 6.4 km/h 77% 1.5 mm 0 W/m2
23:58 18.1 °C 14.6 °C 1002.0 hPa NE 1.4 km/h 20.9 km/h 80% 1.5 mm 0 W/m2
Juneau County Weather
Compliments of Weather Underground - 4 mb